Accueil
METAR-TAF:

METAR-TAF

Aéroports :

Aéroport international Roi-Abdelaziz

Djeddah, Arabie saoudite

latitude: 21-42N, longitude: 039-11E, altitude: 15 m

Observation

Le bulletin a été fait il y a 1 heure et 0 minutes, à 03:00 UTC
Vent 6 kt de nord
Température 31°C
Humidité 79%
Pression 1006 hPa
Visibilité 10 km ou plus
Nuages épars à une hauteur de 3500 ft

METAR: OEJN 110300Z 35006KT 9999 SCT035 31/27 Q1006 NOSIG

Heure: 07:00 (04:00 UTC)

Prévision

Le bulletin a été fait il y a 5 heures et 0 minutes, à 23:00 UTC
Prévision valable du 11 à 00 UTC au 12 à 06 UTC
Vent 6 kt de est/nord-est
Visibilité 10 km ou plus
Quelques nuages à une hauteur de 4000 ft
Evoluant progressivement
du 11 à 06 UTC au 11 à 08 UTC
Vent 18 kt de nord/nord-ouest
Evoluant progressivement
du 11 à 18 UTC au 11 à 20 UTC
Vent 10 kt de est/nord-est

TAF: OEJN 102300Z 1100/1206 06006KT 9999 FEW040 BECMG 1106/1108 34018KT BECMG 1118/1120 06010KT

Observations et prévisions météorologiques de plus de 4000 aéroports (messages METAR et TAF).

Les stations disponibles sont représentées par des disques jaunes et rouges sur la carte.

Passer la souris dessus pour voir le nom de la station.

Cliquer dessus pour voir les observations et prévisions météorologiques.

Pour changer de carte: cliquez sur les boutons verts avec une croix noire pour zoomer, sur le bouton vert avec un tiret pour effectuer un zoom arrière, ou sur les flèches vertes pour les cartes adjacentes.


METAR-TAF: